Time;durP1;ratioP1;P1;durP2;ratioP2;P2;SDS_P1;SDS_P2;PMS_P1;PMS_P2;Temp;Humidity;BMP_temperature;BMP_pressure;BME280_temperature;BME280_humidity;BME280_pressure;Samples;Min_cycle;Max_cycle;Signal;HPM_P1;HPM_P2
2023/03/03 00:02:11;;;;;;;16.05;9.85;;;;;;;;;;5148816;27;20084;-60
2023/03/03 00:04:38;;;;;;;13.60;9.30;;;;;;;;;;5150884;27;20051;-61
2023/03/03 00:07:05;;;;;;;18.63;9.95;;;;;;;;;;5144552;27;20051;-61
2023/03/03 00:09:31;;;;;;;17.27;9.77;;;;;;;;;;5145079;27;20055;-61
2023/03/03 00:11:59;;;;;;;15.32;9.40;;;;;;;;;;5166600;27;20098;-61
2023/03/03 00:14:31;;;;;;;15.68;9.57;;;;;;;;;;5146800;27;20138;-60
2023/03/03 00:17:00;;;;;;;17.00;9.40;;;;;;;;;;5152743;27;20134;-59
2023/03/03 00:19:36;;;;;;;20.80;8.95;;;;;;;;;;5152997;27;20061;-60
2023/03/03 00:22:13;;;;;;;16.33;9.88;;;;;;;;;;5161955;27;20146;-61
2023/03/03 00:24:39;;;;;;;15.48;8.57;;;;;;;;;;5145269;27;20086;-61
2023/03/03 00:27:22;;;;;;;16.50;9.85;;;;;;;;;;5141435;27;20055;-60
2023/03/03 00:29:52;;;;;;;15.13;10.18;;;;;;;;;;5151647;27;20051;-59
2023/03/03 00:32:23;;;;;;;20.00;9.38;;;;;;;;;;5144565;27;20152;-61
2023/03/03 00:34:50;;;;;;;15.48;10.13;;;;;;;;;;5144272;27;20039;-59
2023/03/03 00:37:21;;;;;;;13.85;9.63;;;;;;;;;;5144609;27;20062;-60
2023/03/03 00:39:47;;;;;;;15.40;9.55;;;;;;;;;;5159086;27;20047;-61
2023/03/03 00:42:14;;;;;;;16.33;10.02;;;;;;;;;;5160095;27;20054;-61
2023/03/03 00:44:59;;;;;;;23.73;11.68;;;;;;;;;;5149183;27;20043;-59
2023/03/03 00:47:42;;;;;;;20.13;10.87;;;;;;;;;;5148651;27;20051;-59
2023/03/03 00:50:08;;;;;;;18.45;11.15;;;;;;;;;;5160765;27;20310;-60
2023/03/03 00:52:36;;;;;;;18.63;11.93;;;;;;;;;;5159851;27;20421;-61
2023/03/03 00:55:03;;;;;;;17.75;10.55;;;;;;;;;;5145863;27;20806;-60
2023/03/03 00:57:30;;;;;;;18.40;11.88;;;;;;;;;;5152571;27;20131;-60
2023/03/03 00:59:56;;;;;;;21.77;12.75;;;;;;;;;;5165895;27;20055;-60
2023/03/03 01:02:22;;;;;;;20.85;13.05;;;;;;;;;;5164715;27;20034;-60
2023/03/03 01:04:50;;;;;;;21.33;12.18;;;;;;;;;;5164887;27;20367;-61
2023/03/03 01:07:17;;;;;;;21.35;12.75;;;;;;;;;;5162246;27;20053;-60
2023/03/03 01:09:43;;;;;;;20.80;11.88;;;;;;;;;;5149009;27;20049;-60
2023/03/03 01:12:10;;;;;;;22.90;13.40;;;;;;;;;;5144485;27;20063;-61
2023/03/03 01:14:36;;;;;;;25.48;14.30;;;;;;;;;;5155082;27;20046;-59
2023/03/03 01:17:03;;;;;;;23.70;12.77;;;;;;;;;;5164645;27;20513;-59
2023/03/03 01:19:30;;;;;;;26.10;14.43;;;;;;;;;;5163694;27;20522;-59
2023/03/03 01:21:56;;;;;;;26.90;14.90;;;;;;;;;;5163492;27;20126;-61
2023/03/03 01:24:23;;;;;;;27.10;15.23;;;;;;;;;;5144501;27;20078;-61
2023/03/03 01:26:49;;;;;;;26.83;15.13;;;;;;;;;;5150308;27;20568;-61
2023/03/03 01:29:15;;;;;;;25.55;14.27;;;;;;;;;;5151267;27;20497;-61
2023/03/03 01:31:42;;;;;;;28.30;14.77;;;;;;;;;;5168344;27;20081;-61
2023/03/03 01:34:08;;;;;;;26.05;14.52;;;;;;;;;;5169570;27;20053;-61
2023/03/03 01:36:36;;;;;;;27.48;14.80;;;;;;;;;;5149563;27;20058;-61
2023/03/03 01:39:02;;;;;;;27.75;15.95;;;;;;;;;;5157546;27;20064;-61
2023/03/03 01:41:32;;;;;;;25.40;15.07;;;;;;;;;;5161792;27;20048;-61
2023/03/03 01:43:58;;;;;;;26.23;15.60;;;;;;;;;;5147902;27;20075;-61
2023/03/03 01:46:30;;;;;;;29.85;14.50;;;;;;;;;;5168841;27;20047;-61
2023/03/03 01:49:01;;;;;;;25.58;14.05;;;;;;;;;;5136146;27;20047;-62
2023/03/03 01:51:31;;;;;;;27.05;14.32;;;;;;;;;;5160625;27;20051;-60
2023/03/03 01:54:02;;;;;;;27.23;14.45;;;;;;;;;;5166397;27;20050;-61
2023/03/03 01:56:29;;;;;;;26.50;14.15;;;;;;;;;;5162353;27;21105;-60
2023/03/03 01:58:56;;;;;;;27.52;15.10;;;;;;;;;;5149114;27;20051;-60
2023/03/03 02:01:24;;;;;;;27.50;15.20;;;;;;;;;;5148711;27;20514;-61
2023/03/03 02:03:52;;;;;;;23.60;14.20;;;;;;;;;;5165381;27;20575;-60
2023/03/03 02:06:20;;;;;;;31.33;15.40;;;;;;;;;;5166822;27;20096;-61
2023/03/03 02:08:52;;;;;;;27.67;13.75;;;;;;;;;;5166601;27;20053;-59
2023/03/03 02:11:20;;;;;;;26.42;14.55;;;;;;;;;;5152598;27;20062;-61
2023/03/03 02:13:46;;;;;;;27.58;15.15;;;;;;;;;;5160274;27;20099;-61
2023/03/03 02:16:12;;;;;;;27.67;14.20;;;;;;;;;;5163250;27;20081;-60
2023/03/03 02:18:39;;;;;;;20.23;11.95;;;;;;;;;;5165420;27;20057;-60
2023/03/03 02:21:26;;;;;;;26.73;14.30;;;;;;;;;;5168396;27;20054;-60
2023/03/03 02:24:09;;;;;;;27.98;13.98;;;;;;;;;;5164404;27;20043;-59
2023/03/03 02:26:39;;;;;;;25.23;13.07;;;;;;;;;;5157305;27;20498;-60
2023/03/03 02:29:05;;;;;;;24.13;14.30;;;;;;;;;;5158468;27;20750;-60
2023/03/03 02:31:32;;;;;;;26.35;15.35;;;;;;;;;;5167118;27;20111;-61
2023/03/03 02:33:58;;;;;;;27.13;15.50;;;;;;;;;;5168977;27;20046;-62
2023/03/03 02:36:29;;;;;;;28.98;14.80;;;;;;;;;;5157789;27;20509;-61
2023/03/03 02:39:15;;;;;;;28.88;15.63;;;;;;;;;;5158907;27;20051;-62
2023/03/03 02:41:46;;;;;;;35.35;15.50;;;;;;;;;;5156065;27;20054;-61
2023/03/03 02:44:14;;;;;;;32.55;16.00;;;;;;;;;;5166089;27;20050;-60
2023/03/03 02:46:42;;;;;;;30.80;15.80;;;;;;;;;;5155579;27;20046;-61
2023/03/03 02:49:10;;;;;;;31.48;15.27;;;;;;;;;;5165224;27;20065;-59
2023/03/03 02:51:37;;;;;;;29.15;15.57;;;;;;;;;;5167382;27;20062;-60
2023/03/03 02:54:04;;;;;;;29.75;14.95;;;;;;;;;;5159421;27;20055;-59
2023/03/03 02:56:30;;;;;;;29.67;14.73;;;;;;;;;;5146794;27;20087;-61
2023/03/03 02:58:57;;;;;;;28.75;15.73;;;;;;;;;;5146377;27;20051;-62
2023/03/03 03:01:23;;;;;;;32.65;16.33;;;;;;;;;;5147662;27;20170;-61
2023/03/03 03:03:50;;;;;;;28.88;14.48;;;;;;;;;;5161779;27;20051;-61
2023/03/03 03:06:16;;;;;;;27.73;15.23;;;;;;;;;;5165015;27;20054;-61
2023/03/03 03:08:42;;;;;;;29.95;15.70;;;;;;;;;;5150159;27;20055;-61
2023/03/03 03:11:09;;;;;;;28.00;15.55;;;;;;;;;;5148115;27;20047;-61
2023/03/03 03:13:35;;;;;;;29.83;16.10;;;;;;;;;;5151801;27;20038;-60
2023/03/03 03:16:02;;;;;;;29.88;15.40;;;;;;;;;;5159357;27;20061;-61
2023/03/03 03:18:28;;;;;;;29.17;15.77;;;;;;;;;;5162246;27;20047;-60
2023/03/03 03:20:55;;;;;;;28.75;14.77;;;;;;;;;;5163422;27;20101;-62
2023/03/03 03:23:22;;;;;;;31.00;15.07;;;;;;;;;;5150345;27;20116;-60
2023/03/03 03:25:48;;;;;;;30.73;13.43;;;;;;;;;;5155868;27;20126;-61
2023/03/03 03:28:15;;;;;;;31.63;16.90;;;;;;;;;;5153086;27;20134;-62
2023/03/03 03:30:44;;;;;;;30.52;15.95;;;;;;;;;;5162317;27;20051;-61
2023/03/03 03:33:11;;;;;;;29.50;15.63;;;;;;;;;;5162400;27;20412;-61
2023/03/03 03:35:39;;;;;;;30.25;15.07;;;;;;;;;;5167535;27;20043;-59
2023/03/03 03:38:05;;;;;;;32.40;15.45;;;;;;;;;;5159577;27;20043;-60
2023/03/03 03:40:32;;;;;;;32.08;16.58;;;;;;;;;;5164336;27;20422;-62
2023/03/03 03:42:58;;;;;;;26.85;14.82;;;;;;;;;;5168086;27;20111;-61
2023/03/03 03:45:25;;;;;;;29.27;15.15;;;;;;;;;;5166741;27;20495;-60
2023/03/03 03:47:51;;;;;;;28.38;15.60;;;;;;;;;;5175232;27;20042;-60
2023/03/03 03:50:17;;;;;;;22.40;11.65;;;;;;;;;;5163443;27;20104;-61
2023/03/03 03:52:44;;;;;;;22.50;12.48;;;;;;;;;;5166293;27;20051;-61
2023/03/03 03:55:10;;;;;;;24.48;12.68;;;;;;;;;;5166970;27;20656;-61
2023/03/03 03:57:36;;;;;;;28.85;14.63;;;;;;;;;;5155060;27;20513;-60
2023/03/03 04:00:07;;;;;;;23.90;13.10;;;;;;;;;;5164036;27;20057;-59
2023/03/03 04:02:34;;;;;;;29.98;14.52;;;;;;;;;;5166197;27;20108;-62
2023/03/03 04:05:00;;;;;;;31.05;12.68;;;;;;;;;;5166862;27;20129;-61
2023/03/03 04:07:27;;;;;;;25.67;12.52;;;;;;;;;;5159426;27;20142;-61
2023/03/03 04:09:53;;;;;;;28.08;13.57;;;;;;;;;;5167770;27;21408;-60
2023/03/03 04:12:20;;;;;;;29.55;13.70;;;;;;;;;;5168366;27;20043;-61
2023/03/03 04:14:46;;;;;;;28.98;13.40;;;;;;;;;;5167884;27;20078;-61
2023/03/03 04:17:19;;;;;;;27.98;13.15;;;;;;;;;;5153382;27;20516;-60
2023/03/03 04:19:46;;;;;;;24.88;12.38;;;;;;;;;;5151165;27;20055;-60
2023/03/03 04:22:13;;;;;;;24.52;12.68;;;;;;;;;;5145425;27;20501;-61
2023/03/03 04:24:39;;;;;;;28.38;12.57;;;;;;;;;;5147342;27;20139;-61
2023/03/03 04:27:08;;;;;;;32.15;13.68;;;;;;;;;;5165851;27;20046;-61
2023/03/03 04:29:34;;;;;;;25.25;13.07;;;;;;;;;;5147738;27;20061;-60
2023/03/03 04:32:01;;;;;;;28.02;13.65;;;;;;;;;;5145780;27;20051;-60
2023/03/03 04:34:27;;;;;;;21.73;11.88;;;;;;;;;;5143622;27;20061;-60
2023/03/03 04:36:54;;;;;;;27.90;13.43;;;;;;;;;;5166266;27;20520;-60
2023/03/03 04:39:20;;;;;;;25.75;13.23;;;;;;;;;;5161911;27;20047;-59
2023/03/03 04:41:47;;;;;;;25.90;11.65;;;;;;;;;;5165168;27;20508;-60
2023/03/03 04:44:13;;;;;;;27.30;12.75;;;;;;;;;;5163107;27;20047;-61
2023/03/03 04:46:40;;;;;;;24.60;12.60;;;;;;;;;;5164779;27;20576;-60
2023/03/03 04:49:07;;;;;;;24.17;12.52;;;;;;;;;;5151748;27;20128;-60
2023/03/03 04:51:36;;;;;;;22.45;10.98;;;;;;;;;;5144333;27;20051;-60
2023/03/03 04:54:03;;;;;;;26.00;11.27;;;;;;;;;;5163598;27;20138;-61
2023/03/03 04:56:30;;;;;;;23.88;11.52;;;;;;;;;;5160271;27;20047;-60
2023/03/03 04:58:57;;;;;;;23.73;11.23;;;;;;;;;;5144187;27;20050;-61
2023/03/03 05:01:23;;;;;;;30.10;11.20;;;;;;;;;;5146575;27;20042;-62
2023/03/03 05:03:50;;;;;;;22.65;11.30;;;;;;;;;;5162965;27;20047;-61
2023/03/03 05:06:17;;;;;;;21.30;10.82;;;;;;;;;;5163064;27;20968;-61
2023/03/03 05:08:44;;;;;;;24.98;11.35;;;;;;;;;;5161061;27;20073;-60
2023/03/03 05:11:11;;;;;;;22.27;12.18;;;;;;;;;;5144539;27;20051;-61
2023/03/03 05:13:37;;;;;;;26.08;11.82;;;;;;;;;;5161267;27;20043;-62
2023/03/03 05:16:04;;;;;;;27.35;12.70;;;;;;;;;;5149118;27;20051;-60
2023/03/03 05:18:30;;;;;;;26.38;11.55;;;;;;;;;;5160120;27;20054;-60
2023/03/03 05:20:57;;;;;;;23.27;12.10;;;;;;;;;;5164535;27;20047;-61
2023/03/03 05:23:24;;;;;;;23.08;11.98;;;;;;;;;;5164708;27;20592;-60
2023/03/03 05:25:50;;;;;;;25.20;11.70;;;;;;;;;;5148630;27;20434;-61
2023/03/03 05:28:17;;;;;;;27.65;12.10;;;;;;;;;;5148755;27;20525;-61
2023/03/03 05:30:43;;;;;;;26.90;11.75;;;;;;;;;;5162543;27;20057;-61
2023/03/03 05:33:12;;;;;;;25.58;13.15;;;;;;;;;;5165966;27;20054;-60
2023/03/03 05:35:39;;;;;;;34.22;13.80;;;;;;;;;;5162624;27;20504;-61
2023/03/03 05:38:05;;;;;;;28.73;12.13;;;;;;;;;;5164621;27;20583;-61
2023/03/03 05:40:32;;;;;;;26.67;12.25;;;;;;;;;;5164599;27;20042;-61
2023/03/03 05:42:58;;;;;;;45.17;13.05;;;;;;;;;;5164656;27;20031;-61
2023/03/03 05:45:25;;;;;;;30.35;12.15;;;;;;;;;;5164594;27;20059;-61
2023/03/03 05:47:52;;;;;;;25.08;12.25;;;;;;;;;;5151551;27;20519;-60
2023/03/03 05:50:19;;;;;;;27.27;12.55;;;;;;;;;;5164491;27;20047;-61
2023/03/03 05:52:51;;;;;;;25.05;12.07;;;;;;;;;;5160419;27;20047;-60
2023/03/03 05:55:18;;;;;;;29.88;12.52;;;;;;;;;;5144435;27;20054;-61
2023/03/03 05:57:44;;;;;;;26.38;12.93;;;;;;;;;;5144848;27;20055;-61
2023/03/03 06:00:11;;;;;;;26.88;12.85;;;;;;;;;;5136807;27;20051;-60
2023/03/03 06:02:38;;;;;;;26.25;11.38;;;;;;;;;;5155214;27;20072;-62
2023/03/03 06:05:05;;;;;;;26.42;12.65;;;;;;;;;;5153780;27;20111;-61
2023/03/03 06:07:31;;;;;;;31.17;13.35;;;;;;;;;;5160617;27;20055;-62
2023/03/03 06:09:58;;;;;;;26.25;12.52;;;;;;;;;;5165158;27;20058;-61
2023/03/03 06:12:24;;;;;;;25.42;13.63;;;;;;;;;;5163133;27;20625;-60
2023/03/03 06:14:51;;;;;;;32.47;13.63;;;;;;;;;;5161988;27;20604;-60
2023/03/03 06:17:17;;;;;;;32.97;14.20;;;;;;;;;;5161892;27;20051;-59
2023/03/03 06:19:43;;;;;;;24.10;11.10;;;;;;;;;;5151625;27;20492;-60
2023/03/03 06:22:10;;;;;;;30.23;12.73;;;;;;;;;;5167086;27;20051;-60
2023/03/03 06:24:36;;;;;;;30.30;12.63;;;;;;;;;;5161437;27;20055;-60
2023/03/03 06:27:02;;;;;;;33.00;13.52;;;;;;;;;;5155696;27;20155;-61
2023/03/03 06:29:29;;;;;;;25.58;12.43;;;;;;;;;;5162126;27;20047;-61
2023/03/03 06:31:55;;;;;;;28.60;12.18;;;;;;;;;;5151723;27;20500;-59
2023/03/03 06:34:22;;;;;;;28.27;12.93;;;;;;;;;;5146557;27;20533;-60
2023/03/03 06:36:48;;;;;;;25.52;12.35;;;;;;;;;;5151901;27;20104;-60
2023/03/03 06:39:15;;;;;;;29.88;12.23;;;;;;;;;;5146551;27;20155;-59
2023/03/03 06:41:41;;;;;;;28.27;12.10;;;;;;;;;;5152708;27;20558;-61
2023/03/03 06:44:07;;;;;;;35.42;14.15;;;;;;;;;;5147893;27;20171;-60
2023/03/03 06:46:34;;;;;;;31.70;13.57;;;;;;;;;;5151611;27;21005;-59
2023/03/03 06:49:00;;;;;;;28.33;13.15;;;;;;;;;;5154621;27;20043;-61
2023/03/03 06:51:33;;;;;;;28.77;12.40;;;;;;;;;;5148872;27;20050;-61
2023/03/03 06:54:01;;;;;;;34.20;12.93;;;;;;;;;;5157504;27;20603;-60
2023/03/03 06:56:29;;;;;;;32.72;13.80;;;;;;;;;;5150194;27;20516;-61
2023/03/03 06:58:57;;;;;;;32.15;12.38;;;;;;;;;;5158074;27;20054;-60
2023/03/03 07:01:23;;;;;;;32.60;12.52;;;;;;;;;;5166115;27;20053;-61
2023/03/03 07:03:50;;;;;;;43.10;14.10;;;;;;;;;;5165295;27;20282;-61
2023/03/03 07:06:22;;;;;;;33.38;13.27;;;;;;;;;;5152504;27;20158;-62
2023/03/03 07:08:49;;;;;;;32.40;13.38;;;;;;;;;;5145069;27;20051;-61
2023/03/03 07:11:17;;;;;;;34.85;13.73;;;;;;;;;;5147841;27;20058;-61
2023/03/03 07:13:45;;;;;;;30.17;13.00;;;;;;;;;;5156734;27;20047;-62
2023/03/03 07:16:12;;;;;;;31.90;14.45;;;;;;;;;;5147636;27;20039;-61
2023/03/03 07:18:50;;;;;;;26.73;12.38;;;;;;;;;;5158878;27;20055;-61
2023/03/03 07:21:21;;;;;;;32.20;12.98;;;;;;;;;;5161280;27;20138;-60
2023/03/03 07:23:48;;;;;;;28.88;12.77;;;;;;;;;;5153037;27;20051;-62
2023/03/03 07:26:16;;;;;;;33.10;13.80;;;;;;;;;;5147394;27;20151;-61
2023/03/03 07:28:46;;;;;;;29.20;14.13;;;;;;;;;;5147164;27;20059;-63
2023/03/03 07:31:36;;;;;;;30.30;13.35;;;;;;;;;;5158110;27;20988;-62
2023/03/03 07:34:18;;;;;;;25.60;12.35;;;;;;;;;;5147055;27;20077;-62
2023/03/03 07:36:44;;;;;;;28.17;12.90;;;;;;;;;;5156728;27;20100;-60
2023/03/03 07:39:23;;;;;;;28.67;12.05;;;;;;;;;;5166103;27;20051;-62
2023/03/03 07:41:50;;;;;;;27.13;12.45;;;;;;;;;;5145165;27;20043;-60
2023/03/03 07:44:21;;;;;;;24.92;12.20;;;;;;;;;;5160327;27;20054;-60
2023/03/03 07:46:48;;;;;;;27.05;11.50;;;;;;;;;;5165375;27;20321;-62
2023/03/03 07:49:14;;;;;;;27.98;12.05;;;;;;;;;;5160720;27;20505;-61
2023/03/03 07:51:41;;;;;;;30.92;12.68;;;;;;;;;;5144859;27;20138;-60
2023/03/03 07:54:16;;;;;;;24.88;11.23;;;;;;;;;;5163412;27;20047;-60
2023/03/03 07:56:42;;;;;;;24.42;11.40;;;;;;;;;;5165505;27;20046;-60
2023/03/03 07:59:23;;;;;;;26.10;11.43;;;;;;;;;;5156489;27;20054;-59
2023/03/03 08:01:55;;;;;;;24.17;10.70;;;;;;;;;;5145435;27;20170;-62
2023/03/03 08:04:42;;;;;;;29.08;11.07;;;;;;;;;;5151088;27;20139;-62
2023/03/03 08:07:16;;;;;;;24.50;10.55;;;;;;;;;;5145372;27;20066;-60
2023/03/03 08:09:44;;;;;;;21.65;10.88;;;;;;;;;;5144616;27;20054;-59
2023/03/03 08:12:46;;;;;;;26.63;11.05;;;;;;;;;;5164600;27;20394;-59
2023/03/03 08:15:24;;;;;;;25.40;10.88;;;;;;;;;;5086857;28;20184;-61
2023/03/03 08:17:51;;;;;;;20.35;9.73;;;;;;;;;;5080863;28;20167;-60
2023/03/03 08:20:44;;;;;;;25.70;11.10;;;;;;;;;;5079211;28;20044;-61
2023/03/03 08:23:11;;;;;;;22.63;10.55;;;;;;;;;;5077052;28;20466;-61
2023/03/03 08:25:38;;;;;;;22.05;10.23;;;;;;;;;;5080672;28;20044;-61
2023/03/03 08:28:04;;;;;;;25.70;11.68;;;;;;;;;;5094971;28;20052;-61
2023/03/03 08:30:30;;;;;;;26.05;11.07;;;;;;;;;;5088501;28;20090;-61
2023/03/03 08:32:57;;;;;;;22.90;10.32;;;;;;;;;;5092584;28;20044;-62
2023/03/03 08:35:23;;;;;;;23.35;11.65;;;;;;;;;;5098477;28;20048;-61
2023/03/03 08:37:50;;;;;;;23.23;10.40;;;;;;;;;;5087493;28;20139;-60
2023/03/03 08:40:16;;;;;;;18.52;10.00;;;;;;;;;;5087739;28;20944;-61
2023/03/03 08:42:43;;;;;;;22.48;10.95;;;;;;;;;;5085628;28;20521;-59
2023/03/03 08:45:09;;;;;;;20.92;9.77;;;;;;;;;;5089351;28;20642;-61
2023/03/03 08:47:37;;;;;;;23.63;10.15;;;;;;;;;;5095706;28;20066;-61
2023/03/03 08:50:04;;;;;;;22.38;10.65;;;;;;;;;;5114844;27;20058;-61
2023/03/03 08:52:30;;;;;;;19.25;9.13;;;;;;;;;;5160105;27;20070;-61
2023/03/03 08:54:58;;;;;;;21.95;9.25;;;;;;;;;;5149132;27;20732;-61
2023/03/03 08:57:24;;;;;;;21.88;9.90;;;;;;;;;;5144054;27;20062;-60
2023/03/03 08:59:50;;;;;;;20.90;9.18;;;;;;;;;;5148277;27;20054;-61
2023/03/03 09:02:17;;;;;;;22.88;9.35;;;;;;;;;;5144288;27;20051;-61
2023/03/03 09:04:43;;;;;;;22.40;8.85;;;;;;;;;;5147597;27;20043;-61
2023/03/03 09:07:10;;;;;;;18.30;9.20;;;;;;;;;;5163191;27;20439;-61
2023/03/03 09:09:36;;;;;;;20.15;9.70;;;;;;;;;;5147084;27;20050;-61
2023/03/03 09:12:23;;;;;;;17.02;9.15;;;;;;;;;;5156362;27;20041;-61
2023/03/03 09:14:50;;;;;;;20.02;9.32;;;;;;;;;;5156412;27;20134;-61
2023/03/03 09:17:25;;;;;;;17.00;9.05;;;;;;;;;;5146274;27;20108;-62
2023/03/03 09:19:55;;;;;;;18.08;9.23;;;;;;;;;;5156407;27;20142;-61
2023/03/03 09:22:23;;;;;;;18.38;8.02;;;;;;;;;;5152511;27;20045;-61
2023/03/03 09:24:52;;;;;;;13.82;7.47;;;;;;;;;;5161230;27;20127;-62
2023/03/03 09:27:26;;;;;;;17.05;7.97;;;;;;;;;;5160120;27;20050;-61
2023/03/03 09:29:52;;;;;;;12.85;7.10;;;;;;;;;;5155312;27;20050;-62
2023/03/03 09:32:31;;;;;;;16.55;8.35;;;;;;;;;;5165921;27;20591;-61
2023/03/03 09:34:58;;;;;;;12.98;6.72;;;;;;;;;;5163746;27;20055;-61
2023/03/03 09:37:31;;;;;;;15.13;7.45;;;;;;;;;;5164449;27;20133;-61
2023/03/03 09:39:57;;;;;;;15.80;7.40;;;;;;;;;;5153683;27;20051;-61
2023/03/03 09:42:35;;;;;;;16.55;8.48;;;;;;;;;;5164909;27;20589;-60
2023/03/03 09:45:20;;;;;;;17.73;8.85;;;;;;;;;;5155971;27;20102;-62
2023/03/03 09:47:47;;;;;;;10.95;6.80;;;;;;;;;;5145526;27;20039;-62
2023/03/03 09:50:14;;;;;;;14.90;7.55;;;;;;;;;;5155124;27;20047;-60
2023/03/03 09:52:50;;;;;;;17.80;9.38;;;;;;;;;;5154955;27;20054;-59
2023/03/03 09:55:34;;;;;;;11.48;7.15;;;;;;;;;;5164057;27;20138;-62
2023/03/03 09:58:02;;;;;;;11.90;6.50;;;;;;;;;;5167439;27;20486;-62
2023/03/03 10:00:43;;;;;;;16.67;7.00;;;;;;;;;;5161460;27;20043;-61
2023/03/03 10:03:22;;;;;;;13.13;6.38;;;;;;;;;;5151561;27;20138;-62
2023/03/03 10:06:14;;;;;;;10.93;6.47;;;;;;;;;;5161545;27;20047;-62
2023/03/03 10:08:56;;;;;;;11.45;5.78;;;;;;;;;;5149774;27;20528;-63
2023/03/03 10:11:32;;;;;;;12.05;5.93;;;;;;;;;;5146967;27;20050;-61
2023/03/03 10:14:17;;;;;;;11.05;6.28;;;;;;;;;;5163802;27;20054;-63
2023/03/03 10:16:43;;;;;;;9.05;5.38;;;;;;;;;;5146876;27;20039;-62
2023/03/03 10:19:12;;;;;;;8.40;4.47;;;;;;;;;;5158121;27;20075;-61
2023/03/03 10:21:45;;;;;;;8.85;5.45;;;;;;;;;;5146315;27;20087;-62
2023/03/03 10:24:21;;;;;;;10.27;5.10;;;;;;;;;;5149301;27;20635;-62
2023/03/03 10:26:59;;;;;;;9.55;4.60;;;;;;;;;;5153904;27;20043;-61
2023/03/03 10:29:43;;;;;;;7.15;4.40;;;;;;;;;;5164192;27;20057;-62
2023/03/03 10:32:09;;;;;;;7.78;4.18;;;;;;;;;;5169799;27;20084;-62
2023/03/03 10:34:36;;;;;;;7.15;4.45;;;;;;;;;;5164791;27;20047;-61
2023/03/03 10:37:34;;;;;;;6.82;4.47;;;;;;;;;;5160638;27;20750;-61
2023/03/03 10:40:19;;;;;;;12.85;4.40;;;;;;;;;;5089471;27;20096;-62
2023/03/03 10:42:54;;;;;;;10.88;4.85;;;;;;;;;;5154685;27;20843;-62
2023/03/03 10:45:30;;;;;;;8.57;4.28;;;;;;;;;;5155160;27;20100;-61
2023/03/03 10:47:57;;;;;;;13.27;5.35;;;;;;;;;;5156956;27;20074;-61
2023/03/03 10:50:23;;;;;;;10.02;4.68;;;;;;;;;;5155506;27;20050;-63
2023/03/03 10:52:49;;;;;;;9.57;5.05;;;;;;;;;;5146198;27;20044;-63
2023/03/03 10:55:29;;;;;;;9.93;4.68;;;;;;;;;;5155772;27;20097;-62
2023/03/03 10:58:05;;;;;;;10.40;4.90;;;;;;;;;;5148316;27;20053;-60
2023/03/03 11:00:39;;;;;;;9.60;4.80;;;;;;;;;;5153862;27;20047;-63
2023/03/03 11:03:15;;;;;;;11.80;4.30;;;;;;;;;;5148381;27;20047;-62
2023/03/03 11:05:53;;;;;;;10.50;4.30;;;;;;;;;;5162831;27;20049;-60
2023/03/03 11:08:25;;;;;;;9.63;4.10;;;;;;;;;;5159604;27;20303;-60
2023/03/03 11:10:57;;;;;;;10.60;4.70;;;;;;;;;;5160886;27;20051;-62
2023/03/03 11:13:45;;;;;;;9.68;5.00;;;;;;;;;;5155967;27;20063;-60
2023/03/03 11:16:19;;;;;;;8.63;3.75;;;;;;;;;;5145642;27;20146;-61
2023/03/03 11:19:01;;;;;;;8.32;4.07;;;;;;;;;;5149293;27;20146;-61
2023/03/03 11:21:33;;;;;;;7.25;3.78;;;;;;;;;;5158315;27;20051;-62
2023/03/03 11:24:14;;;;;;;9.43;3.63;;;;;;;;;;5161011;27;20534;-61
2023/03/03 11:26:49;;;;;;;6.93;3.35;;;;;;;;;;5148787;27;20043;-62
2023/03/03 11:29:33;;;;;;;10.20;3.03;;;;;;;;;;5157308;27;20063;-62
2023/03/03 11:32:18;;;;;;;9.43;3.13;;;;;;;;;;5153911;27;20978;-61
2023/03/03 11:35:03;;;;;;;9.55;3.13;;;;;;;;;;5159960;27;20050;-63
2023/03/03 11:37:36;;;;;;;5.73;3.10;;;;;;;;;;5156674;27;20819;-62
2023/03/03 11:40:11;;;;;;;2.92;2.17;;;;;;;;;;5162821;27;20554;-64
2023/03/03 11:42:40;;;;;;;5.53;2.83;;;;;;;;;;5155600;27;20047;-61
2023/03/03 11:45:16;;;;;;;8.32;2.60;;;;;;;;;;5157631;27;20050;-61
2023/03/03 11:47:48;;;;;;;12.80;3.25;;;;;;;;;;5160218;27;20519;-61
2023/03/03 11:50:15;;;;;;;3.15;2.17;;;;;;;;;;5159781;27;20100;-60
2023/03/03 11:52:52;;;;;;;3.75;2.03;;;;;;;;;;5144076;27;20058;-61
2023/03/03 11:55:18;;;;;;;4.05;2.40;;;;;;;;;;5157831;27;20673;-61
2023/03/03 11:57:59;;;;;;;6.93;2.75;;;;;;;;;;5158105;27;20054;-61
2023/03/03 12:00:38;;;;;;;8.40;2.60;;;;;;;;;;5149064;27;20081;-61
2023/03/03 12:03:05;;;;;;;2.35;1.63;;;;;;;;;;5146111;27;20051;-60
2023/03/03 12:05:37;;;;;;;6.07;1.90;;;;;;;;;;5153781;27;20047;-62
2023/03/03 12:08:13;;;;;;;2.05;1.67;;;;;;;;;;5155139;27;20229;-63
2023/03/03 12:10:39;;;;;;;;;;;;;;;;;;5160072;27;20072;-62
2023/03/03 12:13:05;;;;;;;;;;;;;;;;;;5153181;27;43324;-62
2023/03/03 12:15:44;;;;;;;3.20;1.50;;;;;;;;;;5159068;27;46644;-61
2023/03/03 12:18:16;;;;;;;3.15;1.70;;;;;;;;;;5164483;27;20486;-63
2023/03/03 12:20:54;;;;;;;4.55;1.77;;;;;;;;;;5155280;27;20099;-61
2023/03/03 12:23:31;;;;;;;7.07;1.90;;;;;;;;;;5158467;27;20054;-63
2023/03/03 12:26:06;;;;;;;4.28;1.95;;;;;;;;;;5160591;27;20507;-61
2023/03/03 12:28:35;;;;;;;3.28;1.90;;;;;;;;;;5143818;27;20055;-63
2023/03/03 12:31:21;;;;;;;7.38;1.67;;;;;;;;;;5156033;27;20051;-61
2023/03/03 12:33:47;;;;;;;;;;;;;;;;;;5152698;27;21056;-62
2023/03/03 12:36:29;;;;;;;2.85;1.88;;;;;;;;;;5163526;27;46107;-63
2023/03/03 12:39:07;;;;;;;2.05;1.50;;;;;;;;;;5160412;27;20059;-60
2023/03/03 12:41:36;;;;;;;1.73;1.38;;;;;;;;;;5164792;27;20054;-62
2023/03/03 12:44:09;;;;;;;3.88;2.05;;;;;;;;;;5162186;27;20133;-62
2023/03/03 12:46:43;;;;;;;4.85;2.55;;;;;;;;;;5161460;27;20062;-60
2023/03/03 12:49:10;;;;;;;6.00;2.58;;;;;;;;;;5159565;27;20138;-61
2023/03/03 12:51:49;;;;;;;8.23;3.60;;;;;;;;;;5158933;27;20100;-61
2023/03/03 12:54:32;;;;;;;6.55;3.00;;;;;;;;;;5165955;27;20091;-61
2023/03/03 12:57:08;;;;;;;4.43;2.65;;;;;;;;;;5150191;27;20055;-62
2023/03/03 12:59:47;;;;;;;4.78;2.85;;;;;;;;;;5157351;27;20046;-61
2023/03/03 13:02:31;;;;;;;7.32;2.75;;;;;;;;;;5151938;27;20049;-63
2023/03/03 13:05:09;;;;;;;5.13;2.72;;;;;;;;;;5150960;27;20050;-62
2023/03/03 13:07:35;;;;;;;4.60;2.08;;;;;;;;;;5154612;27;20055;-61
2023/03/03 13:10:08;;;;;;;4.60;2.35;;;;;;;;;;5144353;27;20051;-61
2023/03/03 13:12:40;;;;;;;5.63;2.30;;;;;;;;;;5164972;27;20047;-63
2023/03/03 13:15:24;;;;;;;8.35;2.08;;;;;;;;;;5152105;27;20527;-61
2023/03/03 13:18:15;;;;;;;5.22;2.10;;;;;;;;;;5166077;27;20512;-63
2023/03/03 13:21:05;;;;;;;3.00;1.77;;;;;;;;;;5153937;27;20053;-62
2023/03/03 13:23:31;;;;;;;4.28;2.00;;;;;;;;;;5073978;28;20080;-62
2023/03/03 13:26:04;;;;;;;2.28;1.48;;;;;;;;;;5084658;28;20048;-62
2023/03/03 13:28:41;;;;;;;5.45;1.98;;;;;;;;;;5083997;28;20608;-63
2023/03/03 13:31:10;;;;;;;3.67;2.13;;;;;;;;;;5075910;28;20685;-61
2023/03/03 13:33:38;;;;;;;4.28;2.03;;;;;;;;;;5082767;28;20048;-61
2023/03/03 13:36:07;;;;;;;6.65;2.40;;;;;;;;;;5084917;28;20049;-62
2023/03/03 13:38:36;;;;;;;2.38;1.48;;;;;;;;;;5084338;28;20057;-63
2023/03/03 13:41:19;;;;;;;2.17;1.45;;;;;;;;;;5084804;28;20220;-63
2023/03/03 13:43:53;;;;;;;2.47;1.88;;;;;;;;;;5085377;28;20060;-62
2023/03/03 13:46:30;;;;;;;2.22;1.48;;;;;;;;;;5082863;28;20131;-60
2023/03/03 13:49:12;;;;;;;3.00;1.35;;;;;;;;;;5077511;28;20057;-63
2023/03/03 13:52:02;;;;;;;1.83;1.27;;;;;;;;;;5082500;28;20106;-62
2023/03/03 13:54:40;;;;;;;3.90;1.30;;;;;;;;;;5077724;28;20167;-61
2023/03/03 13:57:14;;;;;;;6.20;1.40;;;;;;;;;;5082559;28;20049;-61
2023/03/03 13:59:55;;;;;;;2.05;1.20;;;;;;;;;;5078042;27;20641;-61
2023/03/03 14:02:37;;;;;;;1.40;0.90;;;;;;;;;;5147064;27;20793;-61
2023/03/03 14:05:22;;;;;;;2.05;0.95;;;;;;;;;;5149175;27;20126;-61
2023/03/03 14:07:59;;;;;;;1.40;1.00;;;;;;;;;;5164391;27;20055;-62
2023/03/03 14:10:34;;;;;;;2.30;0.80;;;;;;;;;;5157672;27;20090;-61
2023/03/03 14:13:08;;;;;;;1.88;1.15;;;;;;;;;;5165437;27;20053;-63
2023/03/03 14:15:40;;;;;;;0.80;0.75;;;;;;;;;;5162870;27;20046;-63
2023/03/03 14:18:25;;;;;;;0.77;0.65;;;;;;;;;;5153902;27;20047;-63
2023/03/03 14:20:52;;;;;;;2.47;0.83;;;;;;;;;;5165691;27;20047;-62
2023/03/03 14:23:22;;;;;;;1.20;0.90;;;;;;;;;;5139340;27;20520;-63
2023/03/03 14:25:58;;;;;;;2.15;0.80;;;;;;;;;;5161218;27;20417;-62
2023/03/03 14:28:26;;;;;;;1.33;1.05;;;;;;;;;;5146705;27;20047;-63
2023/03/03 14:30:56;;;;;;;5.40;0.95;;;;;;;;;;5146617;27;20060;-63
2023/03/03 14:33:29;;;;;;;1.88;0.70;;;;;;;;;;5163854;27;20055;-63
2023/03/03 14:35:56;;;;;;;3.63;0.80;;;;;;;;;;5154055;27;20055;-61
2023/03/03 14:38:24;;;;;;;0.90;0.70;;;;;;;;;;5162596;27;20085;-62
2023/03/03 14:41:02;;;;;;;1.38;0.70;;;;;;;;;;5166779;27;20058;-61
2023/03/03 14:43:34;;;;;;;3.55;1.00;;;;;;;;;;5154801;27;20038;-61
2023/03/03 14:46:19;;;;;;;2.95;0.90;;;;;;;;;;5155197;27;20053;-62
2023/03/03 14:48:49;;;;;;;5.43;1.10;;;;;;;;;;5156466;27;20062;-62